Berlin, New Hampshire
Current Conditions -  °F | °C
As of 2:52 PM on Sunday 23 Nov 2014 (Local Time) from KBML Reporting Station
Overcast Overcast  
Wind Chill: 40°   Ceiling: 3200
Heat Index: 40°   Visibility: 8mi
Dew Point: 37°   Wind: 3mph
Humidity: 89%   Direction: 20°NNE
Pressure: 30.06"   Gusts: NA
Location:  44.47°N, 71.18°W
Report Text: KBML 231952Z AUTO 02003KT 8SM SCT025 BKN032 OVC047 04/03 A3006 RMK AO2 SLP192 T00440028
Loading
Personal Weather Stations






























Interactive Weather Map New forecast layout! Learn more

10-Day Weather Forecast

Advertisements
Track Severe Weather on mobile